Newtonville, NJ (08346)

11:02 PM EDT on August 28, 2015 (GMT -0400)
Weymouth | | Change Station
CLOSE
Current Station
Personal Weather Station
Location: Mays Landing, NJ
Elevation: 63 ft
Nearby Weather Stations

Elev 63 ft 39.53 °N, 74.82 °W | Updated 17 seconds ago

Clear
Clear
59.1 °F
Feels Like 59.1 °F
N
0.0
Wind Variable Wind from SSE
Gusts 0.0 mph

Today
High -- | Low -- °F
--% Chance of Precip.
Yesterday
High -- | Low -- °F
Precip. -- in
6:23 AM 7:37 PM
Waxing Gibbous, 99% visible
Pressure 30.20 in
Visibility 10.0 miles
Clouds Clear
Dew Point 57 °F
Humidity 95%
Rainfall 0.00 in
Snow Depth Not available.
UV 0 out of 12
Pollen 9.40 out of 12
Air Quality Not available.
Flu Activity Not available.
METAR KACY 290254Z 20004KT 10SM CLR 21/15 A3020 RMK AO2 SLP225 T02060150 51017
Pressure 30.20 in
Visibility 10.0 miles
Clouds Clear
Dew Point 57 °F
Humidity 95%
Rainfall 0.00 in
Snow Depth Not available.
UV 0 out of 12
Pollen 9.40 out of 12
Air Quality Not available.
Flu Activity Not available.
METAR KACY 290254Z 20004KT 10SM CLR 21/15 A3020 RMK AO2 SLP225 T02060150 51017

10-Day Weather Forecast

×

Almanac

Astronomy

Aug. 28, 2015 Rise Set
Actual Time
Civil Twilight
Nautical Twilight
Astronomical Twilight
Moon
Length of Visible Light
Length of Day
Tomorrow will be .
, % of the Moon is Illuminated

Today's Extremes

State Highs State Lows

Community

WunderPhotos

Upload Photos

1,850,593 photos uploaded!

WunderBlogs® & News

Nearby

Air Quality

  Air Quality AQ Index Pollutant
Not available.

Snow Depth

Station Depth Elevation

Earthquake Activity

City Distance Mag. Time & Date
Minimum magnitude displayed is 2.5.

Coastal Water Temperatures

Place Temperature

Stations

Nearby Weather Stations

Station Location Temp. Windchill Dew Point Humidity Wind Precip. Elev Updated Type